map of KRYN home
KRYN - Airport
Location
City:  Tucson, Arizona, United States
Name:Ryan Field
ICAO:KRYN
FAA LID:RYN

Details
Type:Airport (Airfield)
Use:Public/Civil
Latitude:3208'32"N (32.142222)
Longitude:11110'28"W (-111.174582)
Datum:WGS 1984
Elevation:2418 ft (737 m)
Variation:9.77E (WMM2015 magnetic declination)
-0.09 annual change
Runways:3
Longest:5503 × 75 ft (1677 × 23 m), paved

Time
Time Zone:UTC-7
Local Time:

Weather
METAR:KRYN 190245Z 23003KT 10SM CLR 10/01 A3014 RMK LAST

Related Locations
Nearby:
Farthest:RRG: 11515 mi / 18531 km
Plaine Corail [Sir Gatan Duval Airport (Plaine Corail Airport)], Rodrigues Island, MU

Find:

   beyond  
but within

Other Information
Maps:
NOTAMs:
Links:
Sources:

  
  • flag of United States
  • flag of Arizona
  

Airport Diagram

Airport diagram for KRYN

Airport diagram PDF

Sectional Chart

Flight Planning
at skyvector.com

Satellite Image

Google Maps Satellite view

 

Copyright © 2004-2018 Karl L. Swartz. All rights reserved.
The Great Circle Mapper name and logo are trademarks of the Great Circle Mapper.
All other trademarks mentioned herein belong to their respective owners.
Please see credits for attibutions and further copyright information.

  Follow gcmap on Facebook Follow gcmap on Twitter Follow gcmap on Google+ GCmap on LinkedIn

hCard Microformat

Geo Microformat